Time;durP1;ratioP1;P1;durP2;ratioP2;P2;SDS_P1;SDS_P2;PMS_P1;PMS_P2;Temp;Humidity;BMP_temperature;BMP_pressure;BME280_temperature;BME280_humidity;BME280_pressure;Samples;Min_cycle;Max_cycle;Signal;HPM_P1;HPM_P2
2021/09/02 07:35:02;;;;;;;12.63;5.03;;;20.50;99.90;;;;;;6268413;22;20333;-75
2021/09/02 07:37:29;;;;;;;7.78;4.70;;;20.60;99.90;;;;;;6277100;22;20496;-76
2021/09/02 07:39:56;;;;;;;10.30;5.22;;;20.70;99.90;;;;;;6277451;22;20202;-77
2021/09/02 07:42:22;;;;;;;9.43;5.45;;;20.30;99.90;;;;;;6277850;22;20259;-79
2021/09/02 07:44:49;;;;;;;10.15;5.28;;;20.00;99.90;;;;;;6277689;22;20214;-78
2021/09/02 07:47:16;;;;;;;10.82;5.30;;;19.90;99.90;;;;;;6277761;22;20185;-83
2021/09/02 07:49:43;;;;;;;9.88;5.63;;;19.70;99.90;;;;;;6277447;22;20259;-78
2021/09/02 07:52:11;;;;;;;12.60;5.03;;;20.00;99.90;;;;;;6277444;22;20179;-78
2021/09/02 07:54:38;;;;;;;10.10;5.00;;;19.80;99.90;;;;;;6277709;22;20197;-81
2021/09/02 07:57:11;;;;;;;13.00;5.47;;;19.40;99.90;;;;;;6277461;22;20656;-78
2021/09/02 07:59:38;;;;;;;11.13;5.20;;;19.00;99.90;;;;;;6277350;22;20175;-77
2021/09/02 08:02:05;;;;;;;13.98;5.85;;;19.10;99.90;;;;;;6271803;22;20238;-75
2021/09/02 08:04:31;;;;;;;10.95;5.00;;;18.90;99.90;;;;;;6275718;22;20206;-79
2021/09/02 08:06:58;;;;;;;12.48;5.63;;;18.90;99.90;;;;;;6275554;22;20175;-80
2021/09/02 08:09:26;;;;;;;14.15;6.05;;;19.00;99.90;;;;;;6274941;22;20270;-79
2021/09/02 08:11:54;;;;;;;11.70;5.50;;;19.30;99.90;;;;;;6276296;22;20221;-81
2021/09/02 08:14:21;;;;;;;13.38;5.38;;;19.60;99.90;;;;;;6275501;22;20253;-79
2021/09/02 08:16:48;;;;;;;12.30;5.57;;;19.60;99.90;;;;;;6274156;22;20174;-78
2021/09/02 08:19:15;;;;;;;10.57;5.40;;;19.40;99.90;;;;;;6274880;22;20181;-78
2021/09/02 08:21:42;;;;;;;14.70;5.88;;;19.40;99.90;;;;;;6272170;22;20672;-77
2021/09/02 08:24:09;;;;;;;13.57;6.35;;;19.40;99.90;;;;;;6274419;22;20234;-79
2021/09/02 08:26:37;;;;;;;15.07;5.90;;;19.10;99.90;;;;;;6275098;22;20565;-80
2021/09/02 08:29:04;;;;;;;13.23;5.72;;;18.90;99.90;;;;;;6275646;22;20625;-80
2021/09/02 08:31:32;;;;;;;11.05;5.43;;;18.80;99.90;;;;;;6274747;22;20281;-86
2021/09/02 08:33:58;;;;;;;12.57;6.03;;;18.90;99.90;;;;;;6274661;22;20190;-78
2021/09/02 08:36:25;;;;;;;11.15;5.82;;;19.00;99.90;;;;;;6274474;22;20261;-84
2021/09/02 08:38:52;;;;;;;14.02;6.68;;;19.50;99.90;;;;;;6270337;22;20262;-81
2021/09/02 08:41:20;;;;;;;15.95;5.82;;;20.20;99.90;;;;;;6271021;22;20281;-79
2021/09/02 08:43:49;;;;;;;12.43;5.55;;;20.30;99.90;;;;;;6274919;22;20202;-80
2021/09/02 08:46:16;;;;;;;10.90;6.07;;;20.10;99.90;;;;;;6276359;22;20175;-80
2021/09/02 08:48:45;;;;;;;14.18;6.55;;;20.50;99.90;;;;;;6276118;22;20266;-80
2021/09/02 08:51:12;;;;;;;14.88;6.40;;;21.00;99.90;;;;;;6276531;22;20194;-80
2021/09/02 08:53:39;;;;;;;13.90;6.68;;;21.40;99.90;;;;;;6276413;22;20491;-81
2021/09/02 08:56:06;;;;;;;11.35;5.90;;;21.30;99.90;;;;;;6276652;22;20175;-79
2021/09/02 08:58:33;;;;;;;13.93;6.50;;;21.00;99.90;;;;;;6276162;22;20572;-80
2021/09/02 09:01:01;;;;;;;12.30;6.03;;;20.70;99.90;;;;;;6276000;22;20529;-82
2021/09/02 09:03:28;;;;;;;14.63;5.82;;;20.90;99.90;;;;;;6276374;22;20728;-82
2021/09/02 09:05:57;;;;;;;12.18;5.78;;;21.00;99.90;;;;;;6276293;22;20179;-81
2021/09/02 09:08:33;;;;;;;12.63;5.43;;;20.80;99.90;;;;;;6276507;22;20262;-81
2021/09/02 09:11:15;;;;;;;11.00;5.53;;;20.60;99.90;;;;;;6275582;22;20209;-81
2021/09/02 09:13:42;;;;;;;10.98;5.57;;;20.40;99.90;;;;;;6276517;22;20175;-79
2021/09/02 09:16:11;;;;;;;11.43;5.78;;;20.50;99.90;;;;;;6275944;22;20187;-80
2021/09/02 09:18:43;;;;;;;11.13;5.15;;;20.70;99.90;;;;;;6276365;22;20175;-81
2021/09/02 09:21:12;;;;;;;10.70;5.10;;;20.70;99.90;;;;;;6275840;22;20645;-80
2021/09/02 09:23:51;;;;;;;9.93;5.15;;;20.90;99.90;;;;;;6276368;22;20206;-80
2021/09/02 09:26:18;;;;;;;11.95;5.70;;;20.90;99.90;;;;;;6276152;22;20179;-80
2021/09/02 09:28:45;;;;;;;12.98;5.63;;;21.00;99.90;;;;;;6275759;22;20629;-82
2021/09/02 09:31:26;;;;;;;9.00;4.38;;;21.10;99.90;;;;;;6276309;22;20273;-81
2021/09/02 09:33:54;;;;;;;11.20;5.70;;;21.00;99.90;;;;;;6276047;22;20194;-80
2021/09/02 09:36:22;;;;;;;13.05;5.22;;;20.80;99.90;;;;;;6276140;22;20479;-80
2021/09/02 09:39:08;;;;;;;9.18;4.80;;;20.40;99.90;;;;;;6275955;22;20181;-81
2021/09/02 09:41:37;;;;;;;10.55;4.65;;;20.30;99.90;;;;;;6276387;22;20552;-81
2021/09/02 09:44:31;;;;;;;8.38;3.72;;;20.20;99.90;;;;;;6275992;22;20205;-81
2021/09/02 09:47:12;;;;;;;13.77;4.95;;;20.10;99.90;;;;;;6204586;22;20253;-82
2021/09/02 09:49:51;;;;;;;9.40;4.50;;;19.70;99.90;;;;;;6275529;22;20776;-81
2021/09/02 09:52:26;;;;;;;9.85;4.10;;;19.80;99.90;;;;;;6276329;22;20197;-80
2021/09/02 09:55:00;;;;;;;11.02;4.38;;;19.80;99.90;;;;;;6277321;22;20174;-81
2021/09/02 09:57:29;;;;;;;11.10;5.00;;;19.90;99.90;;;;;;6276394;22;20538;-82
2021/09/02 10:00:00;;;;;;;8.60;4.38;;;19.90;99.90;;;;;;6276705;22;20479;-81
2021/09/02 10:02:29;;;;;;;7.72;3.95;;;20.00;99.90;;;;;;6276429;22;20265;-80
2021/09/02 10:04:57;;;;;;;8.02;4.22;;;20.10;99.90;;;;;;6275879;22;20213;-80
2021/09/02 10:07:24;;;;;;;9.10;4.10;;;20.30;99.90;;;;;;6276388;22;20175;-80
2021/09/02 10:09:53;;;;;;;9.30;4.72;;;20.40;99.90;;;;;;6275710;22;20257;-79
2021/09/02 10:12:20;;;;;;;12.13;4.10;;;20.40;99.90;;;;;;6275946;22;20179;-80
2021/09/02 10:14:48;;;;;;;8.77;4.10;;;20.20;99.90;;;;;;6276266;22;20179;-78
2021/09/02 10:17:15;;;;;;;9.27;4.22;;;20.20;99.90;;;;;;6276462;22;20179;-79
2021/09/02 10:19:44;;;;;;;11.23;4.20;;;20.00;99.90;;;;;;6275869;22;20197;-80
2021/09/02 10:22:12;;;;;;;9.02;4.38;;;20.10;99.90;;;;;;6276406;22;20190;-80
2021/09/02 10:24:40;;;;;;;9.32;4.15;;;20.20;99.90;;;;;;6275983;22;20233;-82
2021/09/02 10:27:38;;;;;;;11.20;3.97;;;20.40;99.90;;;;;;6275801;22;20193;-81
2021/09/02 10:30:22;;;;;;;8.05;3.38;;;20.50;99.90;;;;;;6277642;22;20275;-81
2021/09/02 10:32:49;;;;;;;6.18;3.03;;;20.50;99.90;;;;;;6277386;22;20190;-84
2021/09/02 10:35:38;;;;;;;7.38;3.08;;;20.50;99.90;;;;;;6278283;22;20617;-87
2021/09/02 10:38:07;;;;;;;8.70;3.33;;;20.70;99.90;;;;;;6267934;22;20493;-81
2021/09/02 10:40:48;;;;;;;6.68;3.58;;;20.70;99.90;;;;;;6279413;22;20194;-84
2021/09/02 10:43:15;;;;;;;8.15;3.60;;;20.70;99.90;;;;;;6277726;22;20213;-81
2021/09/02 10:45:43;;;;;;;11.38;3.83;;;20.70;99.90;;;;;;6278082;22;20237;-87
2021/09/02 10:48:18;;;;;;;5.45;2.92;;;20.90;99.90;;;;;;6278312;22;20175;-82
2021/09/02 10:50:47;;;;;;;5.93;3.30;;;20.90;99.90;;;;;;6278069;22;20204;-81
2021/09/02 10:53:16;;;;;;;9.05;3.65;;;21.20;99.90;;;;;;6276813;22;20549;-81
2021/09/02 10:55:50;;;;;;;6.75;3.53;;;21.30;99.90;;;;;;6276963;22;20467;-80
2021/09/02 10:58:48;;;;;;;6.40;3.17;;;21.40;99.90;;;;;;6276940;22;20500;-84
2021/09/02 11:01:39;;;;;;;8.07;3.60;;;21.20;99.90;;;;;;6278404;22;20661;-80
2021/09/02 11:04:16;;;;;;;5.75;3.05;;;20.90;99.90;;;;;;6272980;22;20510;-84
2021/09/02 11:06:49;;;;;;;9.10;3.38;;;20.70;99.90;;;;;;6283881;22;20236;-82
2021/09/02 11:09:30;;;;;;;7.63;3.45;;;20.50;99.90;;;;;;6284199;22;20194;-81
2021/09/02 11:11:58;;;;;;;6.18;3.13;;;20.60;99.90;;;;;;6283865;22;20553;-83
2021/09/02 11:14:25;;;;;;;6.35;2.92;;;20.70;99.90;;;;;;6278470;22;20218;-81
2021/09/02 11:16:51;;;;;;;7.82;3.33;;;20.90;99.90;;;;;;6278701;22;20175;-82
2021/09/02 11:19:31;;;;;;;5.28;2.80;;;21.20;99.90;;;;;;6279887;22;20262;-83
2021/09/02 11:22:07;;;;;;;7.93;3.00;;;21.50;99.90;;;;;;6277713;22;20191;-81
2021/09/02 11:24:38;;;;;;;6.57;2.97;;;21.40;99.90;;;;;;6278065;22;20274;-83
2021/09/02 11:27:06;;;;;;;4.60;2.70;;;21.40;99.90;;;;;;6278891;22;20185;-82
2021/09/02 11:29:32;;;;;;;5.95;2.80;;;21.50;99.90;;;;;;6278415;22;20175;-81
2021/09/02 11:32:00;;;;;;;7.10;2.97;;;21.60;99.90;;;;;;6279027;22;20281;-82
2021/09/02 11:34:28;;;;;;;6.97;3.30;;;21.50;99.90;;;;;;6279367;22;20240;-82
2021/09/02 11:36:55;;;;;;;6.22;3.47;;;21.40;99.90;;;;;;6281440;22;20277;-82
2021/09/02 11:39:28;;;;;;;5.90;3.13;;;21.30;99.90;;;;;;6281270;22;20175;-83
2021/09/02 11:42:01;;;;;;;6.05;3.05;;;21.50;99.90;;;;;;6278032;22;20273;-81
2021/09/02 11:44:31;;;;;;;6.90;3.10;;;21.60;99.90;;;;;;6278489;22;20672;-83
2021/09/02 11:46:58;;;;;;;10.30;3.28;;;21.70;99.90;;;;;;6277430;22;20210;-82
2021/09/02 11:49:26;;;;;;;4.82;3.05;;;21.50;99.90;;;;;;6277347;22;20186;-81
2021/09/02 11:51:54;;;;;;;6.30;3.05;;;21.50;99.90;;;;;;6277935;22;20201;-82
2021/09/02 11:54:23;;;;;;;6.60;3.72;;;21.70;99.90;;;;;;6277425;22;20206;-82
2021/09/02 11:56:50;;;;;;;6.45;3.30;;;22.00;99.90;;;;;;6277807;22;20218;-81
2021/09/02 11:59:18;;;;;;;9.18;3.90;;;21.90;99.90;;;;;;6277469;22;20182;-82
2021/09/02 12:01:46;;;;;;;6.60;3.67;;;21.40;99.90;;;;;;6277208;22;20198;-84
2021/09/02 12:04:17;;;;;;;9.07;4.22;;;21.40;99.90;;;;;;6277059;22;20237;-86
2021/09/02 12:06:46;;;;;;;5.68;3.10;;;21.40;99.90;;;;;;6276797;22;20182;-81
2021/09/02 12:09:13;;;;;;;7.63;3.58;;;21.50;99.90;;;;;;6276883;22;20206;-81
2021/09/02 12:11:41;;;;;;;6.57;3.53;;;21.50;99.90;;;;;;6277487;22;20207;-82
2021/09/02 12:14:19;;;;;;;8.70;3.80;;;21.20;99.90;;;;;;6276700;22;20175;-82
2021/09/02 12:16:46;;;;;;;7.40;3.50;;;21.10;99.90;;;;;;6276858;22;20257;-82
2021/09/02 12:19:13;;;;;;;8.48;3.42;;;21.00;99.90;;;;;;6273425;22;20628;-83
2021/09/02 12:21:41;;;;;;;6.18;3.15;;;21.00;99.90;;;;;;6275009;22;20198;-80
2021/09/02 12:24:12;;;;;;;7.90;3.33;;;21.10;99.90;;;;;;6275676;22;20509;-84
2021/09/02 12:27:01;;;;;;;8.75;3.33;;;21.30;99.90;;;;;;6275203;22;20186;-84
2021/09/02 12:29:28;;;;;;;5.97;3.28;;;21.50;99.90;;;;;;6276469;22;20183;-84
2021/09/02 12:31:56;;;;;;;7.00;3.53;;;21.70;99.90;;;;;;6272899;22;20234;-79
2021/09/02 12:34:24;;;;;;;7.10;3.05;;;21.70;99.90;;;;;;6275371;22;20262;-82
2021/09/02 12:37:04;;;;;;;5.93;2.88;;;21.80;99.90;;;;;;6276291;22;20253;-82
2021/09/02 12:39:32;;;;;;;7.68;3.22;;;21.50;99.90;;;;;;6277783;22;20602;-85
2021/09/02 12:42:02;;;;;;;6.40;3.47;;;21.30;99.90;;;;;;6276007;22;20286;-81
2021/09/02 12:44:31;;;;;;;6.25;2.78;;;21.30;99.90;;;;;;6275010;22;20241;-79
2021/09/02 12:47:06;;;;;;;4.82;2.88;;;21.40;99.90;;;;;;6275133;22;20509;-80
2021/09/02 12:49:41;;;;;;;4.82;3.03;;;21.50;99.90;;;;;;6274247;22;20178;-83
2021/09/02 12:52:15;;;;;;;8.27;3.30;;;21.50;99.90;;;;;;6275036;22;20193;-79
2021/09/02 12:55:00;;;;;;;5.00;2.90;;;21.50;99.90;;;;;;6275612;22;20217;-80
2021/09/02 12:57:31;;;;;;;4.90;2.80;;;21.60;99.90;;;;;;6274667;22;20209;-80
2021/09/02 12:59:58;;;;;;;7.40;3.42;;;21.50;99.90;;;;;;6275583;22;20175;-78
2021/09/02 13:02:26;;;;;;;6.80;2.97;;;21.60;99.90;;;;;;6275590;22;20350;-79
2021/09/02 13:04:52;;;;;;;6.68;3.50;;;21.80;99.90;;;;;;6275753;22;20487;-81
2021/09/02 13:07:19;;;;;;;6.35;2.80;;;21.90;99.90;;;;;;6275642;22;20186;-78
2021/09/02 13:09:46;;;;;;;5.18;3.13;;;21.80;99.90;;;;;;6276498;22;20175;-79
2021/09/02 13:12:13;;;;;;;4.25;2.67;;;22.00;99.90;;;;;;6276116;22;20181;-79
2021/09/02 13:14:41;;;;;;;6.00;3.13;;;22.30;99.90;;;;;;6276197;22;20174;-79
2021/09/02 13:17:08;;;;;;;7.70;3.80;;;22.50;99.90;;;;;;6276315;22;20179;-78
2021/09/02 13:19:35;;;;;;;7.40;3.58;;;22.40;99.90;;;;;;6275532;22;20314;-80
2021/09/02 13:22:02;;;;;;;5.63;2.75;;;22.20;99.90;;;;;;6276354;22;20195;-78
2021/09/02 13:24:28;;;;;;;7.82;3.70;;;22.40;99.90;;;;;;6276403;22;20181;-79
2021/09/02 13:26:55;;;;;;;7.15;3.22;;;22.20;99.90;;;;;;6276085;22;20179;-79
2021/09/02 13:29:22;;;;;;;7.30;3.80;;;22.10;99.90;;;;;;6275702;22;20174;-79
2021/09/02 13:31:50;;;;;;;6.80;3.65;;;22.10;99.90;;;;;;6276335;22;20195;-75
2021/09/02 13:34:17;;;;;;;7.68;3.28;;;22.20;99.90;;;;;;6275770;22;20629;-73
2021/09/02 13:36:44;;;;;;;6.57;3.50;;;22.40;99.90;;;;;;6275881;22;20179;-74
2021/09/02 13:39:11;;;;;;;7.32;3.70;;;22.20;99.90;;;;;;6276318;22;20174;-75
2021/09/02 13:41:38;;;;;;;6.40;3.50;;;22.10;99.90;;;;;;6275782;22;20689;-74
2021/09/02 13:44:05;;;;;;;6.47;3.33;;;22.30;99.90;;;;;;6276379;22;20175;-79
2021/09/02 13:46:32;;;;;;;6.22;3.90;;;22.30;99.90;;;;;;6277145;22;20206;-83
2021/09/02 13:49:00;;;;;;;7.13;4.13;;;22.30;99.90;;;;;;6275941;22;20181;-74
2021/09/02 13:51:26;;;;;;;8.95;4.10;;;22.00;99.90;;;;;;6274893;22;20199;-75
2021/09/02 13:53:53;;;;;;;8.88;3.88;;;22.10;99.90;;;;;;6275202;22;20172;-77
2021/09/02 13:56:20;;;;;;;7.25;3.28;;;22.00;99.90;;;;;;6275838;22;20257;-77
2021/09/02 13:58:47;;;;;;;6.15;4.10;;;22.10;99.90;;;;;;6276410;22;20257;-80
2021/09/02 14:01:15;;;;;;;8.35;4.10;;;21.90;99.90;;;;;;6275521;22;20274;-84
2021/09/02 14:03:42;;;;;;;6.82;3.50;;;21.80;99.90;;;;;;6277042;22;20273;-80
2021/09/02 14:06:10;;;;;;;9.60;4.70;;;21.70;99.90;;;;;;6278571;22;20289;-88
2021/09/02 14:08:37;;;;;;;5.68;3.33;;;21.80;99.90;;;;;;6278294;22;20257;-84
2021/09/02 14:11:04;;;;;;;7.53;3.83;;;21.90;99.90;;;;;;6277698;22;20200;-75
2021/09/02 14:13:32;;;;;;;5.25;3.50;;;22.20;99.90;;;;;;6278178;22;20181;-72
2021/09/02 14:15:59;;;;;;;7.30;2.78;;;22.30;99.90;;;;;;6277828;22;20203;-72
2021/09/02 14:18:25;;;;;;;7.25;3.42;;;22.30;99.90;;;;;;6277445;22;20175;-72
2021/09/02 14:20:52;;;;;;;6.43;3.70;;;22.30;99.90;;;;;;6277301;22;20202;-72
2021/09/02 14:23:20;;;;;;;6.25;3.33;;;22.30;99.90;;;;;;6277768;22;20175;-76
2021/09/02 14:25:47;;;;;;;6.13;3.42;;;22.50;99.90;;;;;;6277663;22;20479;-80
2021/09/02 14:28:14;;;;;;;7.05;4.00;;;22.60;99.90;;;;;;6277726;22;20626;-80
2021/09/02 14:30:41;;;;;;;7.18;3.83;;;22.60;99.90;;;;;;6277824;22;20194;-77
2021/09/02 14:33:08;;;;;;;5.60;3.58;;;22.40;99.90;;;;;;6278025;22;20274;-85
2021/09/02 14:35:35;;;;;;;4.90;2.92;;;22.40;99.90;;;;;;6276899;22;20613;-78
2021/09/02 14:38:02;;;;;;;6.18;3.45;;;22.10;99.90;;;;;;6277284;22;20198;-82
2021/09/02 14:40:30;;;;;;;5.20;3.05;;;22.00;99.90;;;;;;6277524;22;20198;-83
2021/09/02 14:42:57;;;;;;;9.05;3.30;;;21.90;99.90;;;;;;6277757;22;20175;-74
2021/09/02 14:45:23;;;;;;;4.95;3.20;;;21.80;99.90;;;;;;6277753;22;20202;-80
2021/09/02 14:47:50;;;;;;;7.63;3.58;;;21.70;99.90;;;;;;6277533;22;20182;-79
2021/09/02 14:50:17;;;;;;;5.10;3.50;;;21.70;99.90;;;;;;6276935;22;20198;-79
2021/09/02 14:52:45;;;;;;;6.85;3.78;;;21.80;99.90;;;;;;6278071;22;20237;-84
2021/09/02 14:55:12;;;;;;;5.63;3.60;;;21.90;99.90;;;;;;6278033;22;20175;-86
2021/09/02 14:57:40;;;;;;;6.40;3.28;;;22.00;99.90;;;;;;6277624;22;20181;-84
2021/09/02 15:00:10;;;;;;;4.22;3.15;;;21.90;99.90;;;;;;6277152;22;20195;-84
2021/09/02 15:02:37;;;;;;;5.25;3.10;;;21.80;99.90;;;;;;6276730;22;20186;-84
2021/09/02 15:05:05;;;;;;;6.90;3.50;;;21.90;99.90;;;;;;6277812;22;20201;-85
2021/09/02 15:07:32;;;;;;;6.57;3.20;;;21.80;99.90;;;;;;6277893;22;20174;-83
2021/09/02 15:09:58;;;;;;;7.47;3.17;;;21.80;99.90;;;;;;6278149;22;20197;-87
2021/09/02 15:12:25;;;;;;;6.32;3.08;;;21.80;99.90;;;;;;6278332;22;20261;-87
2021/09/02 15:14:53;;;;;;;5.63;3.20;;;21.90;99.90;;;;;;6277236;22;20217;-83
2021/09/02 15:17:22;;;;;;;4.68;3.22;;;22.10;99.90;;;;;;6277882;22;20257;-86
2021/09/02 15:19:48;;;;;;;7.15;2.92;;;22.00;99.90;;;;;;6277793;22;20262;-86
2021/09/02 15:22:16;;;;;;;6.85;2.67;;;22.10;99.90;;;;;;6277461;22;20210;-85
2021/09/02 15:24:42;;;;;;;6.68;3.42;;;21.90;99.90;;;;;;6278166;22;20174;-77
2021/09/02 15:27:09;;;;;;;6.13;3.80;;;21.80;99.90;;;;;;6277975;22;20206;-83
2021/09/02 15:29:36;;;;;;;5.43;3.55;;;21.80;99.90;;;;;;6277959;22;20208;-85
2021/09/02 15:32:05;;;;;;;4.93;3.05;;;21.70;99.90;;;;;;6277272;22;20672;-80
2021/09/02 15:34:31;;;;;;;6.22;3.70;;;21.70;99.90;;;;;;6277579;22;20667;-80
2021/09/02 15:36:59;;;;;;;5.88;3.20;;;21.80;99.90;;;;;;6277882;22;20637;-81
2021/09/02 15:39:26;;;;;;;6.18;3.28;;;21.90;99.90;;;;;;6278002;22;20175;-83
2021/09/02 15:41:53;;;;;;;4.55;3.20;;;22.10;99.90;;;;;;6278340;22;20195;-86
2021/09/02 15:44:19;;;;;;;4.65;3.28;;;21.90;99.90;;;;;;6278504;22;20175;-86
2021/09/02 15:46:46;;;;;;;6.93;3.47;;;21.90;99.90;;;;;;6277717;22;20667;-81
2021/09/02 15:49:14;;;;;;;6.82;3.42;;;21.90;99.90;;;;;;6277716;22;20179;-86
2021/09/02 15:51:41;;;;;;;5.55;3.35;;;21.80;99.90;;;;;;6278305;22;20195;-89
2021/09/02 15:54:08;;;;;;;5.85;3.28;;;21.70;99.90;;;;;;6277912;22;20636;-88
2021/09/02 15:56:35;;;;;;;5.05;3.20;;;21.80;99.90;;;;;;6278311;22;20175;-87
2021/09/02 15:59:03;;;;;;;4.82;3.03;;;21.80;99.90;;;;;;6278192;22;20178;-83
2021/09/02 16:01:30;;;;;;;5.63;3.33;;;21.80;99.90;;;;;;6277568;22;20199;-84
2021/09/02 16:03:57;;;;;;;5.47;3.97;;;21.80;99.90;;;;;;6278064;22;20175;-85
2021/09/02 16:06:26;;;;;;;7.32;3.83;;;21.80;99.90;;;;;;6277539;22;20292;-88
2021/09/02 16:08:52;;;;;;;5.65;3.63;;;21.70;99.90;;;;;;6277683;22;20174;-88
2021/09/02 16:11:19;;;;;;;6.40;3.80;;;21.70;99.90;;;;;;6277928;22;20495;-86
2021/09/02 16:13:46;;;;;;;4.95;3.15;;;21.60;99.90;;;;;;6277981;22;20181;-87
2021/09/02 16:16:13;;;;;;;6.30;3.75;;;21.50;99.90;;;;;;6279975;22;20181;-89
2021/09/02 16:18:40;;;;;;;5.65;3.67;;;21.40;99.90;;;;;;6278107;22;20175;-86
2021/09/02 16:21:07;;;;;;;7.75;3.85;;;21.40;99.90;;;;;;6278781;22;20495;-81
2021/09/02 16:23:35;;;;;;;6.57;4.00;;;21.40;99.90;;;;;;6278663;22;20179;-84
2021/09/02 16:26:02;;;;;;;5.35;3.60;;;21.30;99.90;;;;;;6277643;22;20665;-83
2021/09/02 16:28:29;;;;;;;7.97;3.88;;;21.40;99.90;;;;;;6277470;22;20175;-86
2021/09/02 16:30:56;;;;;;;7.78;3.75;;;21.30;99.90;;;;;;6276920;22;20198;-83
2021/09/02 16:33:23;;;;;;;5.20;3.53;;;21.20;99.90;;;;;;6277028;22;20179;-82
2021/09/02 16:35:50;;;;;;;8.68;4.13;;;21.20;99.90;;;;;;6277554;22;20181;-84
2021/09/02 16:38:18;;;;;;;5.70;3.70;;;21.10;99.90;;;;;;6277315;22;20249;-89
2021/09/02 16:40:47;;;;;;;5.70;4.40;;;21.20;99.90;;;;;;6277366;22;20203;-87
2021/09/02 16:43:15;;;;;;;6.05;3.40;;;21.20;99.90;;;;;;6277400;22;20632;-88
2021/09/02 16:45:42;;;;;;;5.45;3.53;;;21.10;99.90;;;;;;6277516;22;20186;-86
2021/09/02 16:48:09;;;;;;;5.85;3.63;;;21.10;99.90;;;;;;6277103;22;20626;-87
2021/09/02 16:50:37;;;;;;;8.00;3.92;;;21.00;99.90;;;;;;6276702;22;20278;-85
2021/09/02 16:53:04;;;;;;;7.35;3.90;;;21.00;99.90;;;;;;6277607;22;20489;-88
2021/09/02 16:55:31;;;;;;;7.00;4.05;;;21.00;99.90;;;;;;6277630;22;20175;-83
2021/09/02 16:57:59;;;;;;;5.93;3.60;;;21.10;99.90;;;;;;6277226;22;20183;-88
2021/09/02 17:00:26;;;;;;;6.18;4.35;;;20.90;99.90;;;;;;6277478;22;20278;-81
2021/09/02 17:02:52;;;;;;;6.15;4.10;;;20.90;99.90;;;;;;6277274;22;20257;-87
2021/09/02 17:05:19;;;;;;;7.35;4.20;;;20.90;99.90;;;;;;6277325;22;20548;-87
2021/09/02 17:07:46;;;;;;;6.63;3.95;;;20.90;99.90;;;;;;6277497;22;20295;-84
2021/09/02 17:10:16;;;;;;;7.07;3.95;;;21.00;99.90;;;;;;6274474;22;20198;-85
2021/09/02 17:12:43;;;;;;;10.23;4.10;;;20.90;99.90;;;;;;6277870;22;20179;-82
2021/09/02 17:15:12;;;;;;;8.02;4.15;;;20.80;99.90;;;;;;6276679;22;20175;-83
2021/09/02 17:17:40;;;;;;;8.02;4.20;;;20.80;99.90;;;;;;6276477;22;20665;-84
2021/09/02 17:20:09;;;;;;;8.50;4.00;;;20.80;99.90;;;;;;6277316;22;20202;-83
2021/09/02 17:22:36;;;;;;;7.00;4.35;;;20.80;99.90;;;;;;6277054;22;20181;-84
2021/09/02 17:25:04;;;;;;;8.23;4.10;;;20.80;99.90;;;;;;6277113;22;20197;-86
2021/09/02 17:27:33;;;;;;;6.35;4.20;;;20.70;99.90;;;;;;6277246;22;20206;-87
2021/09/02 17:30:00;;;;;;;7.70;4.38;;;20.70;99.90;;;;;;6276727;22;20197;-91
2021/09/02 17:32:28;;;;;;;7.90;4.00;;;20.70;99.90;;;;;;6276797;22;20185;-83
2021/09/02 17:34:55;;;;;;;6.80;4.32;;;20.60;99.90;;;;;;6276262;22;20182;-82
2021/09/02 17:37:22;;;;;;;8.02;4.35;;;20.60;99.90;;;;;;6276055;22;20178;-86
2021/09/02 17:39:49;;;;;;;5.75;3.83;;;20.70;99.90;;;;;;6275789;22;20178;-83
2021/09/02 17:42:16;;;;;;;7.28;4.20;;;20.60;99.90;;;;;;6275774;22;20206;-83
2021/09/02 17:44:44;;;;;;;5.05;3.88;;;20.70;99.90;;;;;;6276230;22;20175;-81
2021/09/02 17:47:10;;;;;;;9.02;4.38;;;20.70;99.90;;;;;;6276439;22;20212;-85
2021/09/02 17:49:39;;;;;;;7.43;4.05;;;20.50;99.90;;;;;;6276107;22;20179;-82
2021/09/02 17:52:07;;;;;;;7.38;4.15;;;20.40;99.90;;;;;;6276343;22;20205;-83
2021/09/02 17:54:34;;;;;;;8.68;4.47;;;20.40;99.90;;;;;;6276672;22;20179;-83
2021/09/02 17:57:02;;;;;;;8.13;3.97;;;20.40;99.90;;;;;;6275848;22;20206;-83
2021/09/02 17:59:29;;;;;;;6.03;4.18;;;20.50;99.90;;;;;;6276109;22;20179;-84
2021/09/02 18:01:57;;;;;;;5.25;4.20;;;20.40;99.90;;;;;;6275315;22;20249;-81
2021/09/02 18:04:24;;;;;;;9.25;4.55;;;20.60;99.90;;;;;;6274298;22;20636;-79
2021/09/02 18:06:52;;;;;;;8.73;4.47;;;20.60;99.90;;;;;;6274750;22;20288;-78
2021/09/02 18:09:19;;;;;;;5.68;4.32;;;20.40;99.90;;;;;;6274568;22;20197;-77
2021/09/02 18:11:46;;;;;;;6.45;4.30;;;20.40;99.90;;;;;;6276227;22;20201;-86
2021/09/02 18:14:12;;;;;;;6.43;4.68;;;20.50;99.90;;;;;;6276046;22;20175;-79
2021/09/02 18:16:39;;;;;;;6.65;4.60;;;20.30;99.90;;;;;;6275712;22;20186;-76
2021/09/02 18:19:06;;;;;;;7.75;4.35;;;20.10;99.90;;;;;;6275995;22;20181;-81
2021/09/02 18:21:33;;;;;;;7.93;4.88;;;20.10;99.90;;;;;;6275816;22;20195;-75
2021/09/02 18:24:01;;;;;;;7.10;4.68;;;20.10;99.90;;;;;;6276147;22;20174;-78
2021/09/02 18:26:28;;;;;;;9.25;4.72;;;20.10;99.90;;;;;;6275893;22;20253;-75
2021/09/02 18:28:55;;;;;;;7.18;4.47;;;19.70;99.90;;;;;;6275699;22;20182;-76
2021/09/02 18:31:23;;;;;;;6.75;4.20;;;19.60;99.90;;;;;;6275348;22;20190;-76
2021/09/02 18:33:50;;;;;;;6.38;4.38;;;19.70;99.90;;;;;;6275807;22;20189;-78
2021/09/02 18:36:18;;;;;;;8.75;4.50;;;19.60;99.90;;;;;;6275590;22;20175;-77
2021/09/02 18:38:44;;;;;;;8.32;4.47;;;19.70;99.90;;;;;;6275868;22;20183;-77
2021/09/02 18:41:15;;;;;;;9.10;5.00;;;19.70;99.90;;;;;;6275825;22;20195;-73
2021/09/02 18:43:44;;;;;;;10.30;5.28;;;19.70;99.90;;;;;;6266096;22;20186;-78
2021/09/02 18:46:12;;;;;;;6.57;4.60;;;19.60;99.90;;;;;;6273962;22;20238;-78
2021/09/02 18:48:38;;;;;;;9.40;4.72;;;19.50;99.90;;;;;;6274939;22;20186;-78
2021/09/02 18:51:07;;;;;;;7.68;4.72;;;19.40;99.90;;;;;;6276555;22;20281;-78
2021/09/02 18:53:34;;;;;;;7.63;4.73;;;19.30;99.90;;;;;;6281513;22;20685;-77
2021/09/02 18:56:01;;;;;;;8.80;4.80;;;19.20;99.90;;;;;;6282515;22;20175;-77
2021/09/02 18:58:29;;;;;;;9.05;5.22;;;19.00;99.90;;;;;;6281731;22;20207;-76
2021/09/02 19:00:59;;;;;;;8.57;5.47;;;18.90;99.90;;;;;;6277916;22;20553;-77
2021/09/02 19:03:29;;;;;;;11.82;5.57;;;19.00;99.90;;;;;;6277557;22;20175;-77
2021/09/02 19:05:59;;;;;;;9.13;5.05;;;19.20;99.90;;;;;;6277278;22;20522;-78
2021/09/02 19:08:29;;;;;;;7.28;5.13;;;19.10;99.90;;;;;;6277220;22;20203;-78
2021/09/02 19:10:57;;;;;;;7.70;5.03;;;19.10;99.90;;;;;;6276584;22;20234;-78
2021/09/02 19:13:25;;;;;;;9.55;5.70;;;18.90;99.90;;;;;;6276640;22;20181;-77
2021/09/02 19:15:54;;;;;;;10.70;5.72;;;18.90;99.90;;;;;;6277330;22;20502;-77
2021/09/02 19:18:21;;;;;;;9.80;5.97;;;18.90;99.90;;;;;;6278039;22;20557;-78
2021/09/02 19:20:50;;;;;;;7.78;5.15;;;18.80;99.90;;;;;;6277367;22;20233;-77
2021/09/02 19:23:19;;;;;;;10.10;5.32;;;18.70;99.90;;;;;;6277491;22;20217;-77
2021/09/02 19:25:49;;;;;;;8.37;5.70;;;18.60;99.90;;;;;;6277048;22;20182;-76
2021/09/02 19:28:18;;;;;;;11.07;6.45;;;18.80;99.90;;;;;;6276423;22;20289;-78
2021/09/02 19:30:46;;;;;;;11.20;6.40;;;18.90;99.90;;;;;;6277739;22;20756;-78
2021/09/02 19:33:15;;;;;;;11.63;5.90;;;18.90;99.90;;;;;;6275882;22;20560;-77
2021/09/02 19:35:44;;;;;;;9.70;5.90;;;18.80;99.90;;;;;;6275291;22;20265;-78
2021/09/02 19:38:12;;;;;;;9.47;5.50;;;18.60;99.90;;;;;;6275817;22;20178;-77
2021/09/02 19:40:40;;;;;;;12.33;5.83;;;18.30;99.90;;;;;;6276375;22;20195;-77
2021/09/02 19:43:07;;;;;;;8.33;6.43;;;18.40;99.90;;;;;;6276758;22;20259;-78
2021/09/02 19:45:35;;;;;;;7.83;5.73;;;18.30;99.90;;;;;;6279190;22;20181;-77
2021/09/02 19:48:01;;;;;;;12.07;5.83;;;18.20;99.90;;;;;;6278397;22;20203;-77
2021/09/02 19:50:30;;;;;;;11.20;6.47;;;18.10;99.90;;;;;;6278433;22;20230;-77
2021/09/02 19:52:56;;;;;;;11.77;6.73;;;18.00;99.90;;;;;;6277972;22;20208;-77
2021/09/02 19:55:23;;;;;;;10.53;6.60;;;18.10;99.90;;;;;;6276957;22;20213;-77
2021/09/02 19:57:58;;;;;;;14.13;6.60;;;18.10;99.90;;;;;;6276183;22;20249;-77
2021/09/02 20:00:26;;;;;;;12.87;7.13;;;18.10;99.90;;;;;;6276076;22;20198;-78
2021/09/02 20:03:00;;;;;;;9.80;6.47;;;18.00;99.90;;;;;;6276343;22;20179;-78
2021/09/02 20:05:36;;;;;;;11.17;6.60;;;17.90;99.90;;;;;;6275504;22;20205;-77
2021/09/02 20:08:05;;;;;;;12.73;6.83;;;17.90;99.90;;;;;;6275650;22;20202;-77
2021/09/02 20:10:34;;;;;;;12.90;7.00;;;17.90;99.90;;;;;;6275546;22;20205;-78
2021/09/02 20:13:02;;;;;;;13.73;7.37;;;18.00;99.90;;;;;;6275345;22;20240;-77
2021/09/02 20:15:36;;;;;;;11.23;7.33;;;17.90;99.90;;;;;;6275519;22;20217;-77
2021/09/02 20:18:04;;;;;;;11.30;7.20;;;17.90;99.90;;;;;;6276008;22;20190;-78
2021/09/02 20:20:33;;;;;;;12.60;7.50;;;18.00;99.90;;;;;;6275052;22;20199;-77
2021/09/02 20:23:01;;;;;;;11.70;6.93;;;18.10;99.90;;;;;;6275989;22;20274;-78
2021/09/02 20:25:29;;;;;;;13.33;7.10;;;18.10;99.90;;;;;;6275984;22;20181;-78